Flight Track Log - Related Links

Times and Time Zones

All times are in EDT time to prevent confusion due to time zone crossing. See the ASQ5025 flight status page for this flight to view local times or setup timezone preferences in your user account.

Time Position Orientation Groundspeed Altitude Reporting Facility
EDT Latitude Longitude Course Direction KTS MPH feet Rate Location/Type
Tue 11:47:15 AM 44.3911 -73.0183 196° South 236 272 5,700  Level Boston Center
Tue 11:48:15 AM 44.3328 -73.0031 169° South 234 269 8,400 2,650 Climbing Boston Center
Tue 11:49:15 AM 44.2597 -73.0458 203° Southwest 237 273 11,000 2,250 Climbing Boston Center
Tue 11:50:15 AM 44.1761 -73.0886 200° South 276 318 12,900 2,200 Climbing Boston Center
Tue 11:51:00 AM 44.0969 -73.2879 196° South  Level FlightAware Approximate
Tue 11:51:15 AM 44.0864 -73.1222 195° South 319 367 15,400  Level Boston Center
Tue 11:52:00 AM 44.0229 -73.3176 196° South  Level FlightAware Approximate
Tue 11:52:15 AM 44.0008 -73.1414 189° South 347 399 17,600  Level Boston Center
Tue 11:53:15 AM 43.9028 -73.1633 189° South 359 413 19,500 2,000 Climbing Boston Center
Tue 11:54:15 AM 43.8047 -73.1853 189° South 359 413 21,600 1,950 Climbing Boston Center
Tue 11:55:15 AM 43.7044 -73.2069 189° South 364 419 23,400 1,850 Climbing Boston Center
Tue 11:56:15 AM 43.5939 -73.2256 187° South 369 425 25,300 1,300 Climbing Boston Center
Tue 11:57:15 AM 43.4894 -73.2500 190° South 369 425 26,000 350 Climbing Boston Center
Tue 11:58:15 AM 43.3956 -73.2717 190° South 379 436 26,000 -50 Level Boston Center
Tue 11:59:15 AM 43.2872 -73.2928 188° South 384 442 25,900 -550 Descending Boston Center
Tue 12:00:15 PM 43.1661 -73.3197 189° South 397 457 24,900 -1,150 Descending Boston Center
Tue 12:01:15 PM 43.0594 -73.3408 188° South 403 464 23,600 -1,450 Descending Boston Center
Tue 12:02:15 PM 42.9781 -73.3594 189° South 391 450 22,000 -2,000 Descending Boston Center
Tue 12:03:15 PM 42.8508 -73.3858 189° South 391 450 19,600 -1,950 Descending Boston Center
Tue 12:04:15 PM 42.7464 -73.4042 187° South 385 443 18,100 -800 Descending Boston Center
Tue 12:05:15 PM 42.6525 -73.4253 189° South 385 443 18,000 -50 Descending Boston Center
Tue 12:06:15 PM 42.5397 -73.4461 188° South 385 443 18,000  Level Boston Center
Tue 12:07:15 PM 42.4458 -73.4642 188° South 385 443 18,000  Level Boston Center
Tue 12:08:15 PM 42.3350 -73.4878 189° South 380 437 18,000  Level Boston Center
Tue 12:09:15 PM 42.2286 -73.5139 190° South 380 437 18,000  Level Boston Center
Tue 12:10:15 PM 42.1264 -73.5347 189° South 380 437 18,000  Level Boston Center
Tue 12:11:15 PM 42.0386 -73.5469 186° South 370 426 18,000  Level Boston Center
Tue 12:12:15 PM 41.9525 -73.6042 206° Southwest 328 377 18,000 50 Level Boston Center
Tue 12:13:15 PM 41.8875 -73.6531 209° Southwest 308 354 18,100 -650 Climbing Boston Center
Tue 12:14:15 PM 41.8075 -73.7128 209° Southwest 308 354 16,700 -1,600 Descending Boston Center
Tue 12:15:15 PM 41.7403 -73.7672 211° Southwest 308 354 14,900 -1,950 Descending Boston Center
Tue 12:16:15 PM 41.6606 -73.8211 207° Southwest 308 354 12,800 -1,850 Descending Boston Center
Tue 12:17:15 PM 41.5872 -73.8444 193° South 296 341 11,200 -1,350 Descending Boston Center
Tue 12:18:15 PM 41.5000 -73.8667 191° South 282 325 10,100 -1,043 Descending New York TRACON
Tue 12:19:10 PM 41.4333 -73.8667 180° South 285 328 9,200 -574 Descending New York TRACON
Tue 12:20:10 PM 41.3667 -73.8167 151° Southeast 281 323 9,000 -250 Descending New York TRACON
Tue 12:21:10 PM 41.3000 -73.7667 151° Southeast 277 319 8,700 -857 Descending New York TRACON
Tue 12:22:16 PM 41.2333 -73.7000 143° Southeast 261 300 7,200 -1,300 Descending New York TRACON
Tue 12:23:10 PM 41.1833 -73.6500 143° Southeast 263 303 6,100 -1,300 Descending New York TRACON
Tue 12:24:16 PM 41.1167 -73.6000 151° Southeast 267 307 4,600 -1,000 Descending New York TRACON
Tue 12:25:16 PM 41.0500 -73.6500 209° Southwest 272 313 4,000 -350 Descending New York TRACON
Tue 12:26:16 PM 40.9833 -73.7167 217° Southwest 283 326 3,900 -50 Descending New York TRACON
Tue 12:27:16 PM 40.9667 -73.8167 258° West 278 320 3,900  Level New York TRACON
Tue 12:28:16 PM 40.9333 -73.8667 229° Southwest 236 272 3,900  Level New York TRACON
Tue 12:29:17 PM 40.8667 -73.9167 210° Southwest 228 262 3,900  Level New York TRACON
Tue 12:30:17 PM 40.8167 -73.9667 217° Southwest 226 260 3,900  Level New York TRACON
Tue 12:31:17 PM 40.7667 -74.0000 207° Southwest 214 246 3,900  Level New York TRACON
Tue 12:32:23 PM 40.7167 -74.0500 217° Southwest 196 226 3,900  Level New York TRACON
Tue 12:33:17 PM 40.6833 -74.0833 217° Southwest 200 230 3,900  Level New York TRACON
Tue 12:34:17 PM 40.6333 -74.1167 207° Southwest 195 224 3,900  Level New York TRACON
Tue 12:35:23 PM 40.5833 -74.1667 217° Southwest 195 224 3,900  Level New York TRACON
Tue 12:36:23 PM 40.5333 -74.1500 166° South 181 208 3,900 -150 Level New York TRACON
Tue 12:37:23 PM 40.5167 -74.1000 114° Southeast 176 203 3,600 -300 Descending New York TRACON

Login

Don't have an account? Register now (free) for customized features, flight alerts, and more!